Time;durP1;ratioP1;P1;durP2;ratioP2;P2;SDS_P1;SDS_P2;PMS_P1;PMS_P2;Temp;Humidity;BMP_temperature;BMP_pressure;BME280_temperature;BME280_humidity;BME280_pressure;Samples;Min_cycle;Max_cycle;Signal;HPM_P1;HPM_P2
2022/08/15 00:01:37;;;;;;;4.28;2.25;;;25.00;73.00;;;;;;5033683;28;20210;-60
2022/08/15 00:04:07;;;;;;;5.80;2.50;;;24.90;73.40;;;;;;5033607;28;20238;-60
2022/08/15 00:06:45;;;;;;;2.97;2.40;;;24.80;74.30;;;;;;5033435;28;20257;-60
2022/08/15 00:09:14;;;;;;;7.05;2.30;;;24.80;74.80;;;;;;5033582;28;20206;-60
2022/08/15 00:11:44;;;;;;;2.53;2.33;;;24.80;75.20;;;;;;5033591;28;20236;-59
2022/08/15 00:14:17;;;;;;;4.78;2.38;;;24.80;75.10;;;;;;5033663;28;20276;-60
2022/08/15 00:16:47;;;;;;;3.78;2.55;;;24.80;75.50;;;;;;5033412;28;20206;-59
2022/08/15 00:19:16;;;;;;;5.50;2.70;;;24.80;75.80;;;;;;5033270;28;20221;-60
2022/08/15 00:21:47;;;;;;;4.72;2.40;;;24.70;76.10;;;;;;5033417;28;20245;-60
2022/08/15 00:24:15;;;;;;;5.10;2.10;;;24.70;76.70;;;;;;5033127;28;20230;-60
2022/08/15 00:26:43;;;;;;;3.53;2.30;;;24.70;76.10;;;;;;5032652;28;20760;-60
2022/08/15 00:29:13;;;;;;;4.22;2.58;;;24.70;77.80;;;;;;5032762;28;20206;-60
2022/08/15 00:31:40;;;;;;;4.40;2.65;;;24.60;78.90;;;;;;5032588;28;20202;-59
2022/08/15 00:34:07;;;;;;;3.55;2.40;;;24.60;81.50;;;;;;5033002;28;20234;-59
2022/08/15 00:36:34;;;;;;;3.25;2.47;;;24.50;83.30;;;;;;5032742;28;20241;-60
2022/08/15 00:39:02;;;;;;;6.13;2.33;;;24.40;84.40;;;;;;5032701;28;20206;-60
2022/08/15 00:41:41;;;;;;;5.50;2.35;;;24.40;86.50;;;;;;5032783;28;20260;-59
2022/08/15 00:44:13;;;;;;;6.50;2.50;;;24.20;87.50;;;;;;5033083;28;20222;-60
2022/08/15 00:46:43;;;;;;;5.75;2.50;;;24.10;87.70;;;;;;5033747;28;20268;-60
2022/08/15 00:49:10;;;;;;;2.85;2.22;;;24.10;88.40;;;;;;5034278;28;20241;-59
2022/08/15 00:51:43;;;;;;;6.57;2.63;;;24.10;88.30;;;;;;5033565;28;20201;-60
2022/08/15 00:54:19;;;;;;;6.18;2.33;;;24.00;88.30;;;;;;5034109;28;20227;-59
2022/08/15 00:56:49;;;;;;;4.53;2.38;;;24.00;88.50;;;;;;5033211;28;20202;-60
2022/08/15 00:59:23;;;;;;;4.15;2.70;;;24.00;90.00;;;;;;5033242;28;20208;-60
2022/08/15 01:01:51;;;;;;;5.07;2.33;;;24.00;90.20;;;;;;5034066;28;20245;-60
2022/08/15 01:04:20;;;;;;;4.07;2.50;;;24.00;91.00;;;;;;5034442;28;20238;-59
2022/08/15 01:06:48;;;;;;;3.42;2.58;;;24.00;91.40;;;;;;5036882;28;20252;-60
2022/08/15 01:09:17;;;;;;;4.10;2.55;;;23.90;92.60;;;;;;5037441;28;20232;-59
2022/08/15 01:11:51;;;;;;;4.57;2.80;;;23.90;94.80;;;;;;5038112;28;20279;-59
2022/08/15 01:14:20;;;;;;;7.53;2.70;;;23.80;95.80;;;;;;5037026;28;20776;-60
2022/08/15 01:16:47;;;;;;;6.63;2.72;;;23.80;96.50;;;;;;5037949;28;20198;-60
2022/08/15 01:19:19;;;;;;;4.15;2.70;;;23.60;97.80;;;;;;5037109;28;20206;-60
2022/08/15 01:22:14;;;;;;;3.55;2.92;;;23.60;99.60;;;;;;5037421;28;20206;-60
2022/08/15 01:24:53;;;;;;;5.47;2.67;;;23.50;99.90;;;;;;5035283;28;20252;-60
2022/08/15 01:27:22;;;;;;;4.90;2.72;;;23.50;99.90;;;;;;5036761;28;20218;-59
2022/08/15 01:29:51;;;;;;;6.10;3.00;;;23.50;99.90;;;;;;5036946;28;20678;-59
2022/08/15 01:32:18;;;;;;;4.68;2.50;;;23.50;99.90;;;;;;5036639;28;20278;-60
2022/08/15 01:34:45;;;;;;;6.35;3.42;;;23.60;99.90;;;;;;5035356;28;20241;-60
2022/08/15 01:37:12;;;;;;;5.45;3.13;;;23.50;99.90;;;;;;5034640;28;20724;-59
2022/08/15 01:39:43;;;;;;;3.40;2.65;;;23.50;99.90;;;;;;5034943;28;20240;-60
2022/08/15 01:42:15;;;;;;;6.32;3.17;;;23.50;99.90;;;;;;5034919;28;20264;-60
2022/08/15 01:44:45;;;;;;;6.15;3.00;;;23.40;99.90;;;;;;5034529;28;20273;-58
2022/08/15 01:47:19;;;;;;;3.92;3.08;;;23.30;99.90;;;;;;5035005;28;20233;-59
2022/08/15 01:49:53;;;;;;;3.80;2.90;;;23.20;99.90;;;;;;5035775;28;20206;-59
2022/08/15 01:52:27;;;;;;;5.15;3.47;;;23.20;99.90;;;;;;5035568;28;20205;-59
2022/08/15 01:54:56;;;;;;;3.70;3.20;;;23.20;99.90;;;;;;5035498;28;20225;-59
2022/08/15 01:57:24;;;;;;;5.32;3.20;;;23.20;99.90;;;;;;5035693;28;20657;-58
2022/08/15 01:59:56;;;;;;;4.32;3.10;;;23.10;99.90;;;;;;5035783;28;20202;-59
2022/08/15 02:02:23;;;;;;;3.05;2.65;;;23.20;99.90;;;;;;5035815;28;20210;-59
2022/08/15 02:04:50;;;;;;;3.45;2.92;;;23.20;99.90;;;;;;5035687;28;20237;-58
2022/08/15 02:07:20;;;;;;;5.65;3.50;;;23.10;99.90;;;;;;5034448;28;20694;-58
2022/08/15 02:09:48;;;;;;;7.25;4.38;;;23.20;99.90;;;;;;5034809;28;20202;-59
2022/08/15 02:12:16;;;;;;;4.50;3.13;;;23.20;99.90;;;;;;5035872;28;20569;-59
2022/08/15 02:14:44;;;;;;;4.13;3.20;;;23.20;99.90;;;;;;5035556;28;20226;-59
2022/08/15 02:17:13;;;;;;;4.10;2.92;;;23.20;99.90;;;;;;5034106;28;20566;-58
2022/08/15 02:19:42;;;;;;;4.82;2.97;;;23.20;99.90;;;;;;5035265;28;20217;-59
2022/08/15 02:22:10;;;;;;;7.05;3.58;;;23.20;99.90;;;;;;5035460;28;20205;-59
2022/08/15 02:24:38;;;;;;;4.18;3.22;;;23.20;99.90;;;;;;5034992;28;20226;-58
2022/08/15 02:27:06;;;;;;;3.58;2.97;;;23.30;99.90;;;;;;5035181;28;20226;-58
2022/08/15 02:29:35;;;;;;;5.00;3.78;;;23.20;99.90;;;;;;5036294;28;20210;-59
2022/08/15 02:32:10;;;;;;;7.45;3.60;;;23.20;99.90;;;;;;5035164;28;20273;-59
2022/08/15 02:34:37;;;;;;;5.45;3.13;;;23.20;99.90;;;;;;5035653;28;20762;-59
2022/08/15 02:37:05;;;;;;;7.25;3.20;;;23.20;99.90;;;;;;5035994;28;20290;-59
2022/08/15 02:39:33;;;;;;;5.40;3.03;;;23.30;99.90;;;;;;5035404;28;20234;-58
2022/08/15 02:41:59;;;;;;;3.28;2.97;;;23.20;99.90;;;;;;5035566;28;20210;-58
2022/08/15 02:44:27;;;;;;;8.40;7.00;;;23.20;99.90;;;;;;5034151;28;20230;-59
2022/08/15 02:46:55;;;;;;;3.95;3.28;;;23.20;99.90;;;;;;5033018;28;20298;-59
2022/08/15 02:49:24;;;;;;;5.28;2.90;;;23.20;99.90;;;;;;5033651;28;20576;-58
2022/08/15 02:51:51;;;;;;;5.90;3.08;;;23.20;99.90;;;;;;5033890;28;20210;-59
2022/08/15 02:54:24;;;;;;;4.57;3.40;;;23.30;99.90;;;;;;5033513;28;20280;-58
2022/08/15 02:56:51;;;;;;;4.78;3.20;;;23.30;99.90;;;;;;5034167;28;20354;-59
2022/08/15 02:59:18;;;;;;;6.28;4.22;;;23.30;99.90;;;;;;5034044;28;20686;-59
2022/08/15 03:01:45;;;;;;;6.47;4.25;;;23.40;99.90;;;;;;5033950;28;20210;-59
2022/08/15 03:04:15;;;;;;;3.90;3.40;;;23.40;99.90;;;;;;5033761;28;20237;-58
2022/08/15 03:06:44;;;;;;;6.43;3.75;;;23.40;99.90;;;;;;5033903;28;20638;-59
2022/08/15 03:09:13;;;;;;;5.28;3.25;;;23.50;99.90;;;;;;5033900;28;20212;-59
2022/08/15 03:11:42;;;;;;;5.60;3.45;;;23.40;99.90;;;;;;5034230;28;20210;-58
2022/08/15 03:14:11;;;;;;;6.68;3.90;;;23.40;99.90;;;;;;5034610;28;20299;-59
2022/08/15 03:16:43;;;;;;;8.68;3.65;;;23.40;99.90;;;;;;5033740;28;20206;-59
2022/08/15 03:19:11;;;;;;;5.70;3.13;;;23.40;99.90;;;;;;5034829;28;20236;-59
2022/08/15 03:21:38;;;;;;;8.50;4.93;;;23.30;99.90;;;;;;5034612;28;20209;-59
2022/08/15 03:24:07;;;;;;;6.90;3.90;;;23.30;99.90;;;;;;5034179;28;20246;-59
2022/08/15 03:26:34;;;;;;;3.97;3.28;;;23.30;99.90;;;;;;5033686;28;20233;-59
2022/08/15 03:29:01;;;;;;;6.28;3.95;;;23.30;99.90;;;;;;5033131;28;20268;-59
2022/08/15 03:31:28;;;;;;;5.88;3.17;;;23.40;99.90;;;;;;5033517;28;20213;-59
2022/08/15 03:33:55;;;;;;;4.53;2.80;;;23.40;99.90;;;;;;5033727;28;20226;-59
2022/08/15 03:36:24;;;;;;;4.88;3.10;;;23.40;99.90;;;;;;5033524;28;20206;-59
2022/08/15 03:38:52;;;;;;;4.95;3.08;;;23.40;99.90;;;;;;5033093;28;20206;-59
2022/08/15 03:41:21;;;;;;;4.78;3.05;;;23.40;99.90;;;;;;5033281;28;20210;-58
2022/08/15 03:43:47;;;;;;;5.13;2.85;;;23.40;99.90;;;;;;5033304;28;20229;-59
2022/08/15 03:46:17;;;;;;;7.57;3.25;;;23.40;99.90;;;;;;5033216;28;20210;-58
2022/08/15 03:48:47;;;;;;;6.68;3.65;;;23.40;99.90;;;;;;5032730;28;20229;-59
2022/08/15 03:51:16;;;;;;;5.45;3.92;;;23.30;99.90;;;;;;5032908;28;20209;-59
2022/08/15 03:53:45;;;;;;;5.07;3.20;;;23.30;99.90;;;;;;5033201;28;20230;-59
2022/08/15 03:56:14;;;;;;;3.25;2.92;;;23.20;99.90;;;;;;5032670;28;20210;-59
2022/08/15 03:58:42;;;;;;;8.55;3.20;;;23.20;99.90;;;;;;5032380;28;20206;-59
2022/08/15 04:01:13;;;;;;;4.18;3.08;;;23.20;99.90;;;;;;5032787;28;20231;-59
2022/08/15 04:03:40;;;;;;;4.30;2.80;;;23.20;99.90;;;;;;5057152;22;20268;-60
2022/08/15 04:06:10;;;;;;;4.68;2.75;;;23.30;99.90;;;;;;5032322;28;20202;-61
2022/08/15 04:08:39;;;;;;;4.25;2.75;;;23.30;99.90;;;;;;5032655;28;20210;-61
2022/08/15 04:11:08;;;;;;;6.03;2.80;;;23.30;99.90;;;;;;5032752;28;20241;-60
2022/08/15 04:13:36;;;;;;;5.95;2.88;;;23.30;99.90;;;;;;5032497;28;20244;-61
2022/08/15 04:16:04;;;;;;;4.75;3.00;;;23.30;99.90;;;;;;5032696;28;20683;-60
2022/08/15 04:18:31;;;;;;;8.00;3.15;;;23.30;99.90;;;;;;5032679;28;20210;-61
2022/08/15 04:21:00;;;;;;;5.05;3.03;;;23.30;99.90;;;;;;5032140;28;20292;-61
2022/08/15 04:23:27;;;;;;;5.68;2.70;;;23.30;99.90;;;;;;5032412;28;20214;-61
2022/08/15 04:25:54;;;;;;;3.42;2.63;;;23.30;99.90;;;;;;5032303;28;20238;-61
2022/08/15 04:28:22;;;;;;;4.07;2.50;;;23.30;99.90;;;;;;5031951;28;20230;-61
2022/08/15 04:30:50;;;;;;;6.40;2.97;;;23.30;99.90;;;;;;5032201;28;20210;-61
2022/08/15 04:33:20;;;;;;;3.78;2.40;;;23.30;99.90;;;;;;5031919;28;20631;-61
2022/08/15 04:35:50;;;;;;;5.60;2.25;;;23.30;99.90;;;;;;5032203;28;20206;-61
2022/08/15 04:38:17;;;;;;;3.25;2.53;;;23.40;99.90;;;;;;5032158;28;20203;-61
2022/08/15 04:40:44;;;;;;;3.20;2.47;;;23.40;99.90;;;;;;5031428;28;20633;-61
2022/08/15 04:43:11;;;;;;;4.88;2.50;;;23.40;99.90;;;;;;5031923;28;20264;-61
2022/08/15 04:45:40;;;;;;;4.28;2.30;;;23.50;99.90;;;;;;5031734;28;20230;-61
2022/08/15 04:48:07;;;;;;;4.97;2.50;;;23.50;99.90;;;;;;5031565;28;20222;-61
2022/08/15 04:50:38;;;;;;;6.15;2.60;;;23.60;99.90;;;;;;5031707;28;20627;-60
2022/08/15 04:53:07;;;;;;;2.28;2.05;;;23.60;99.90;;;;;;5031900;28;20206;-60
2022/08/15 04:55:35;;;;;;;4.10;2.35;;;23.50;99.90;;;;;;5031565;28;20689;-60
2022/08/15 04:58:02;;;;;;;4.80;2.45;;;23.50;99.90;;;;;;5031453;28;20198;-60
2022/08/15 05:00:32;;;;;;;3.15;2.20;;;23.60;99.90;;;;;;5031590;28;20205;-60
2022/08/15 05:03:01;;;;;;;3.33;2.22;;;23.60;99.90;;;;;;5031834;28;20264;-60
2022/08/15 05:05:28;;;;;;;3.75;2.20;;;23.60;99.90;;;;;;5031449;28;20237;-60
2022/08/15 05:07:56;;;;;;;3.97;2.40;;;23.60;99.90;;;;;;5031369;28;20360;-60
2022/08/15 05:10:23;;;;;;;3.03;2.28;;;23.60;99.90;;;;;;5031917;28;20221;-60
2022/08/15 05:12:50;;;;;;;3.60;1.90;;;23.70;99.90;;;;;;5031610;28;20577;-60
2022/08/15 05:15:19;;;;;;;4.28;2.03;;;23.70;99.90;;;;;;5031379;28;20292;-60
2022/08/15 05:17:47;;;;;;;3.47;1.85;;;23.70;99.90;;;;;;5031586;28;20198;-60
2022/08/15 05:20:14;;;;;;;4.18;1.90;;;23.70;99.90;;;;;;5031520;28;20264;-60
2022/08/15 05:22:57;;;;;;;2.65;1.98;;;23.70;99.90;;;;;;5031510;28;20213;-60
2022/08/15 05:25:24;;;;;;;4.55;1.77;;;23.60;99.90;;;;;;5031482;28;20710;-60
2022/08/15 05:27:52;;;;;;;2.67;1.88;;;23.50;99.90;;;;;;5031226;28;20231;-60
2022/08/15 05:30:18;;;;;;;3.13;1.80;;;23.60;99.90;;;;;;5031867;28;20297;-61
2022/08/15 05:32:45;;;;;;;3.22;1.75;;;23.60;99.90;;;;;;5031246;28;20218;-60
2022/08/15 05:35:12;;;;;;;2.47;1.80;;;23.60;99.90;;;;;;5031530;28;20357;-60
2022/08/15 05:37:39;;;;;;;3.10;1.80;;;23.50;99.90;;;;;;5031188;28;20206;-60
2022/08/15 05:40:10;;;;;;;3.65;1.80;;;23.60;99.90;;;;;;5031171;28;20202;-60
2022/08/15 05:42:48;;;;;;;3.67;1.80;;;23.60;99.90;;;;;;5031597;28;20210;-60
2022/08/15 05:45:21;;;;;;;3.15;1.98;;;23.70;99.90;;;;;;5031284;28;20603;-61
2022/08/15 05:47:59;;;;;;;2.83;1.85;;;23.90;99.90;;;;;;5031552;28;20623;-61
2022/08/15 05:50:31;;;;;;;4.75;1.95;;;23.90;99.90;;;;;;5032494;28;20210;-61
2022/08/15 05:53:07;;;;;;;2.20;2.00;;;24.10;99.90;;;;;;5035319;28;20241;-61
2022/08/15 05:55:41;;;;;;;3.55;2.03;;;24.20;99.90;;;;;;5035166;28;20739;-59
2022/08/15 05:58:20;;;;;;;3.50;1.98;;;24.30;99.50;;;;;;5035055;28;20202;-61
2022/08/15 06:00:51;;;;;;;3.58;2.30;;;24.50;99.20;;;;;;5034780;28;20228;-62
2022/08/15 06:03:24;;;;;;;4.15;2.00;;;24.60;98.90;;;;;;5035238;28;20206;-62
2022/08/15 06:05:54;;;;;;;3.00;2.15;;;24.80;98.40;;;;;;5034994;28;20210;-62
2022/08/15 06:08:25;;;;;;;2.53;2.10;;;25.10;98.00;;;;;;5034724;28;20217;-61
2022/08/15 06:10:55;;;;;;;3.60;1.90;;;25.20;97.70;;;;;;5034620;28;20697;-60
2022/08/15 06:13:26;;;;;;;3.05;1.90;;;25.20;97.50;;;;;;5034344;28;20206;-60
2022/08/15 06:15:58;;;;;;;5.28;2.22;;;25.10;97.40;;;;;;5034724;28;20214;-61
2022/08/15 06:18:28;;;;;;;4.88;1.90;;;25.20;97.60;;;;;;5034291;28;20256;-61
2022/08/15 06:21:02;;;;;;;5.45;2.10;;;25.20;97.10;;;;;;5035030;28;20209;-63
2022/08/15 06:23:41;;;;;;;2.70;1.90;;;25.30;96.90;;;;;;5034266;28;20206;-62
2022/08/15 06:26:22;;;;;;;2.85;2.00;;;25.40;96.70;;;;;;5034521;28;20216;-63
2022/08/15 06:29:05;;;;;;;5.97;1.95;;;25.50;96.40;;;;;;5034363;28;20317;-62
2022/08/15 06:31:34;;;;;;;4.03;2.10;;;25.60;96.20;;;;;;5034281;28;20206;-62
2022/08/15 06:34:09;;;;;;;6.55;2.20;;;25.60;96.10;;;;;;5033970;28;20222;-61
2022/08/15 06:36:42;;;;;;;3.08;1.75;;;25.60;95.80;;;;;;5033837;28;20194;-62
2022/08/15 06:39:18;;;;;;;3.22;2.00;;;25.60;95.70;;;;;;5034072;28;20296;-62
2022/08/15 06:41:54;;;;;;;2.72;1.92;;;25.50;95.80;;;;;;5034042;28;20218;-62
2022/08/15 06:44:20;;;;;;;3.28;1.70;;;25.40;95.80;;;;;;5033811;28;20229;-63
2022/08/15 06:46:49;;;;;;;2.28;1.75;;;25.40;96.00;;;;;;5033389;28;20340;-63
2022/08/15 06:49:19;;;;;;;3.97;1.90;;;25.30;96.10;;;;;;5033846;28;20615;-62
2022/08/15 06:51:47;;;;;;;5.18;2.50;;;25.30;96.00;;;;;;5033923;28;20221;-61
2022/08/15 06:54:17;;;;;;;5.03;2.20;;;25.40;95.70;;;;;;5033607;28;20230;-61
2022/08/15 06:57:01;;;;;;;7.93;2.22;;;25.40;95.70;;;;;;5033325;28;20276;-61
2022/08/15 06:59:38;;;;;;;4.47;2.05;;;25.50;95.80;;;;;;5033727;28;20210;-60
2022/08/15 07:02:16;;;;;;;4.18;1.80;;;25.50;96.20;;;;;;5032961;28;20221;-61
2022/08/15 07:04:52;;;;;;;5.28;2.40;;;25.40;96.20;;;;;;5033397;28;20240;-61
2022/08/15 07:07:32;;;;;;;4.95;2.10;;;25.50;96.20;;;;;;5033151;28;20201;-62
2022/08/15 07:10:07;;;;;;;4.47;2.22;;;25.40;96.30;;;;;;5033494;28;20226;-62
2022/08/15 07:12:42;;;;;;;3.00;1.75;;;25.40;96.40;;;;;;5033539;28;20213;-61
2022/08/15 07:15:16;;;;;;;5.60;1.92;;;25.60;96.10;;;;;;5033393;28;20237;-62
2022/08/15 07:17:49;;;;;;;5.05;1.90;;;25.80;95.80;;;;;;5032942;28;20232;-62
2022/08/15 07:20:17;;;;;;;3.35;2.00;;;26.10;95.30;;;;;;5033603;28;20353;-61
2022/08/15 07:22:43;;;;;;;4.22;1.98;;;26.50;94.60;;;;;;5033077;28;20666;-61
2022/08/15 07:25:13;;;;;;;3.08;1.67;;;27.20;93.10;;;;;;5032840;28;20230;-61
2022/08/15 07:27:41;;;;;;;3.78;1.75;;;28.20;91.10;;;;;;5032782;28;20206;-61
2022/08/15 07:30:18;;;;;;;12.68;2.22;;;28.90;89.00;;;;;;5032866;28;20226;-60
2022/08/15 07:32:50;;;;;;;2.65;1.33;;;30.20;84.60;;;;;;5032756;28;20643;-61
2022/08/15 07:35:22;;;;;;;2.83;1.42;;;32.20;75.90;;;;;;5033092;28;20258;-61
2022/08/15 07:37:56;;;;;;;3.63;1.50;;;33.40;69.70;;;;;;5032765;28;20210;-60
2022/08/15 07:40:28;;;;;;;5.43;1.70;;;34.20;66.10;;;;;;5032969;28;20202;-61
2022/08/15 07:42:57;;;;;;;6.05;2.60;;;35.80;60.80;;;;;;5032530;28;20206;-60
2022/08/15 07:45:30;;;;;;;2.30;1.60;;;36.30;58.90;;;;;;5032359;28;20229;-61
2022/08/15 07:47:59;;;;;;;3.60;1.80;;;35.60;58.80;;;;;;5032604;28;20207;-60
2022/08/15 07:50:34;;;;;;;4.30;1.55;;;34.40;60.40;;;;;;5032514;28;20230;-61
2022/08/15 07:53:06;;;;;;;2.35;1.52;;;33.30;62.50;;;;;;5032579;28;20289;-60
2022/08/15 07:55:33;;;;;;;5.68;1.67;;;32.60;64.30;;;;;;5032427;28;20288;-60
2022/08/15 07:58:03;;;;;;;2.67;1.50;;;32.10;65.60;;;;;;5032516;28;20210;-61
2022/08/15 08:00:34;;;;;;;4.97;1.83;;;32.00;66.20;;;;;;5032530;28;20252;-62
2022/08/15 08:03:05;;;;;;;2.40;1.52;;;31.80;66.80;;;;;;5032669;28;20210;-61
2022/08/15 08:05:47;;;;;;;5.18;1.58;;;31.40;68.00;;;;;;5032340;28;20240;-61
2022/08/15 08:08:14;;;;;;;4.35;1.73;;;31.10;68.40;;;;;;5032192;28;20293;-61
2022/08/15 08:10:47;;;;;;;3.70;1.77;;;30.80;69.30;;;;;;5032281;28;20733;-60
2022/08/15 08:13:35;;;;;;;2.55;1.35;;;30.70;69.70;;;;;;5032440;28;20670;-60
2022/08/15 08:16:07;;;;;;;2.47;1.60;;;30.50;69.70;;;;;;5032656;28;20221;-61
2022/08/15 08:18:48;;;;;;;2.42;1.40;;;30.20;70.20;;;;;;5032077;28;20205;-61
2022/08/15 08:21:18;;;;;;;1.83;1.52;;;30.10;70.60;;;;;;5032722;28;20255;-61
2022/08/15 08:23:48;;;;;;;1.58;1.40;;;30.00;71.00;;;;;;5032463;28;20222;-61
2022/08/15 08:26:29;;;;;;;2.78;1.52;;;29.80;71.10;;;;;;5032414;28;20264;-61
2022/08/15 08:29:07;;;;;;;2.88;1.50;;;29.80;71.10;;;;;;5031452;28;20459;-55
2022/08/15 08:31:42;;;;;;;1.55;1.35;;;30.20;70.20;;;;;;5029352;28;20209;-55
2022/08/15 08:34:16;;;;;;;1.92;1.63;;;30.80;68.10;;;;;;5030967;28;20232;-56
2022/08/15 08:36:55;;;;;;;2.88;1.40;;;30.80;68.40;;;;;;5030741;28;20210;-55
2022/08/15 08:39:33;;;;;;;5.05;1.85;;;30.40;69.50;;;;;;5030843;28;20209;-56
2022/08/15 08:42:16;;;;;;;3.40;2.50;;;30.20;69.80;;;;;;5030900;28;20210;-54
2022/08/15 08:44:55;;;;;;;2.47;2.10;;;30.10;69.80;;;;;;5030821;28;20222;-55
2022/08/15 08:47:33;;;;;;;3.42;1.80;;;30.00;70.20;;;;;;5030652;28;20210;-57
2022/08/15 08:50:15;;;;;;;2.25;1.50;;;29.90;70.10;;;;;;5031171;28;20234;-56
2022/08/15 08:52:47;;;;;;;1.58;1.40;;;29.80;70.60;;;;;;5030919;28;20217;-56
2022/08/15 08:55:19;;;;;;;1.70;1.60;;;29.80;71.00;;;;;;5031083;28;20226;-55
2022/08/15 08:57:51;;;;;;;3.05;1.40;;;30.00;70.80;;;;;;5030757;28;20229;-55
2022/08/15 09:00:21;;;;;;;3.42;1.90;;;30.00;70.80;;;;;;5030862;28;20210;-55
2022/08/15 09:02:52;;;;;;;4.22;1.55;;;29.80;70.60;;;;;;5030741;28;20202;-56
2022/08/15 09:05:29;;;;;;;2.35;1.35;;;29.80;71.20;;;;;;5031035;28;20729;-56
2022/08/15 09:07:59;;;;;;;5.13;1.90;;;29.70;70.90;;;;;;5031018;28;20217;-55
2022/08/15 09:10:32;;;;;;;2.20;1.02;;;29.50;71.50;;;;;;5030697;28;20237;-55
2022/08/15 09:15:49;;;;;;;3.45;1.70;;;29.10;72.70;;;;;;5030811;28;20200;-56
2022/08/15 09:18:20;;;;;;;3.92;1.67;;;29.00;72.60;;;;;;5030728;28;20743;-55
2022/08/15 09:20:48;;;;;;;3.22;1.83;;;29.00;72.20;;;;;;5030696;28;20637;-55
2022/08/15 09:23:16;;;;;;;18.23;16.52;;;29.00;72.50;;;;;;5030712;28;20214;-56
2022/08/15 09:25:50;;;;;;;3.05;1.52;;;29.00;73.10;;;;;;5032081;28;20230;-61
2022/08/15 09:28:24;;;;;;;3.00;1.55;;;29.10;73.30;;;;;;5034476;28;20205;-58
2022/08/15 09:30:53;;;;;;;2.95;1.70;;;29.20;74.00;;;;;;5034309;28;20663;-58
2022/08/15 09:34:03;;;;;;;3.72;1.80;;;29.30;74.00;;;;;;5033993;28;20214;-57
2022/08/15 09:36:50;;;;;;;5.57;2.05;;;29.10;74.40;;;;;;5017746;28;20206;-61
2022/08/15 09:39:39;;;;;;;2.70;1.80;;;28.70;75.00;;;;;;5034209;28;20595;-59
2022/08/15 09:42:25;;;;;;;2.80;1.75;;;28.60;75.70;;;;;;5034167;28;20203;-60
2022/08/15 09:45:32;;;;;;;2.90;1.77;;;28.30;76.50;;;;;;5034249;28;20316;-63
2022/08/15 09:48:34;;;;;;;1.67;1.58;;;28.10;77.60;;;;;;5031815;28;20232;-61
2022/08/15 09:51:12;;;;;;;2.60;1.65;;;28.00;76.80;;;;;;5034169;28;20275;-59
2022/08/15 09:53:54;;;;;;;1.60;1.50;;;28.30;77.00;;;;;;5033907;28;20670;-60
2022/08/15 09:56:23;;;;;;;2.40;1.75;;;28.40;75.30;;;;;;5033774;28;20693;-59
2022/08/15 09:58:53;;;;;;;2.45;1.90;;;28.50;75.40;;;;;;5033757;28;20216;-59
2022/08/15 10:01:23;;;;;;;2.40;1.90;;;28.40;75.30;;;;;;5033509;28;20206;-57
2022/08/15 10:03:59;;;;;;;2.35;1.77;;;28.20;75.80;;;;;;5034029;28;20329;-61
2022/08/15 10:06:29;;;;;;;4.60;1.90;;;28.20;76.10;;;;;;5033611;28;20209;-58
2022/08/15 10:09:15;;;;;;;1.92;1.80;;;28.20;76.60;;;;;;5032962;28;20224;-61
2022/08/15 10:11:59;;;;;;;3.58;2.20;;;28.10;77.50;;;;;;5033747;28;20248;-60
2022/08/15 10:14:28;;;;;;;3.33;1.90;;;27.90;78.10;;;;;;5033096;28;20226;-63
2022/08/15 10:16:57;;;;;;;2.92;1.77;;;27.80;78.10;;;;;;5033870;28;20206;-62
2022/08/15 10:19:31;;;;;;;5.40;1.90;;;28.00;78.00;;;;;;5035501;28;20297;-60
2022/08/15 10:22:00;;;;;;;2.30;1.55;;;28.50;76.90;;;;;;5033749;28;20201;-60
2022/08/15 10:24:33;;;;;;;2.17;1.88;;;28.90;74.60;;;;;;5033091;28;20230;-61
2022/08/15 10:27:17;;;;;;;8.18;1.73;;;29.40;72.80;;;;;;5033243;28;20245;-60
2022/08/15 10:29:48;;;;;;;2.42;1.95;;;29.60;71.50;;;;;;5033072;28;20230;-64
2022/08/15 10:32:37;;;;;;;2.28;1.60;;;29.70;71.30;;;;;;5033003;28;20241;-63
2022/08/15 10:35:11;;;;;;;4.20;1.90;;;29.60;71.30;;;;;;5033041;28;20241;-61
2022/08/15 10:37:51;;;;;;;2.42;1.88;;;29.60;72.10;;;;;;5031405;28;20214;-60
2022/08/15 10:40:46;;;;;;;2.72;1.70;;;29.60;70.70;;;;;;5032979;28;20289;-59
2022/08/15 10:43:38;;;;;;;2.47;1.70;;;29.40;70.90;;;;;;5032812;28;20210;-60
2022/08/15 10:46:17;;;;;;;2.53;1.85;;;29.00;71.90;;;;;;5032738;28;20253;-64
2022/08/15 10:49:03;;;;;;;3.05;2.30;;;28.80;72.80;;;;;;5032847;28;20349;-62
2022/08/15 10:51:46;;;;;;;3.88;2.63;;;28.50;73.80;;;;;;5030260;28;20324;-58
2022/08/15 10:54:24;;;;;;;6.63;2.40;;;28.40;73.20;;;;;;5033026;28;20272;-60
2022/08/15 10:56:54;;;;;;;6.22;2.08;;;28.40;73.30;;;;;;5032268;28;20333;-61
2022/08/15 10:59:26;;;;;;;2.92;1.80;;;28.30;73.40;;;;;;5032931;28;20281;-61
2022/08/15 11:02:05;;;;;;;1.80;1.40;;;28.30;72.90;;;;;;5032353;28;20317;-59
2022/08/15 11:04:36;;;;;;;2.15;1.60;;;28.50;72.70;;;;;;5032518;28;20311;-59
2022/08/15 11:07:17;;;;;;;2.28;1.70;;;28.60;71.40;;;;;;5031972;28;20298;-59
2022/08/15 11:09:51;;;;;;;1.73;1.63;;;28.80;70.20;;;;;;5032440;28;20309;-59
2022/08/15 11:12:21;;;;;;;2.53;1.80;;;28.90;69.80;;;;;;5032275;28;20213;-60
2022/08/15 11:14:54;;;;;;;2.60;1.70;;;29.10;69.70;;;;;;5031725;28;20290;-59
2022/08/15 11:17:27;;;;;;;2.30;1.83;;;29.20;69.50;;;;;;5032124;28;20210;-61
2022/08/15 11:20:05;;;;;;;4.50;1.67;;;29.40;68.00;;;;;;5032425;28;20194;-63
2022/08/15 11:22:36;;;;;;;8.93;8.13;;;29.50;67.90;;;;;;5032123;28;20210;-59
2022/08/15 11:25:12;;;;;;;2.72;1.48;;;29.50;68.10;;;;;;5031999;28;20234;-60
2022/08/15 11:27:38;;;;;;;2.53;2.05;;;29.40;67.50;;;;;;5032104;28;20191;-59
2022/08/15 11:30:08;;;;;;;2.13;1.88;;;29.20;68.30;;;;;;5031612;28;20233;-62
2022/08/15 11:32:37;;;;;;;4.10;1.83;;;29.30;68.20;;;;;;5032086;28;20205;-63
2022/08/15 11:35:24;;;;;;;3.65;2.63;;;29.40;67.60;;;;;;5032193;28;20264;-57
2022/08/15 11:37:55;;;;;;;1.63;1.52;;;29.50;67.60;;;;;;5031330;28;20677;-60
2022/08/15 11:40:27;;;;;;;4.22;3.50;;;29.70;66.60;;;;;;5031528;28;20260;-61
2022/08/15 11:42:55;;;;;;;2.13;1.50;;;29.80;66.70;;;;;;5031653;28;20294;-59
2022/08/15 11:45:26;;;;;;;2.20;1.40;;;29.90;66.00;;;;;;5031558;28;20296;-61
2022/08/15 11:47:55;;;;;;;1.98;1.70;;;29.90;66.10;;;;;;5031332;28;20237;-60
2022/08/15 11:50:26;;;;;;;2.10;1.73;;;29.90;65.10;;;;;;5031218;28;20759;-61
2022/08/15 11:52:57;;;;;;;2.08;1.70;;;29.70;65.70;;;;;;5031403;28;20210;-60
2022/08/15 11:55:43;;;;;;;5.43;1.50;;;29.50;66.40;;;;;;5031459;28;20707;-59
2022/08/15 11:58:22;;;;;;;5.78;1.50;;;29.40;66.80;;;;;;5031365;28;20215;-60
2022/08/15 12:00:51;;;;;;;3.30;1.60;;;29.30;67.00;;;;;;5031286;28;20210;-60
2022/08/15 12:03:20;;;;;;;5.60;1.50;;;29.30;67.00;;;;;;5025005;28;20207;-60
2022/08/15 12:05:48;;;;;;;6.35;1.77;;;29.30;66.50;;;;;;5031135;28;20206;-60
2022/08/15 12:08:23;;;;;;;3.90;1.83;;;29.20;66.60;;;;;;5031322;28;20202;-62
2022/08/15 12:10:51;;;;;;;1.92;1.33;;;29.00;67.10;;;;;;5031465;28;20316;-61
2022/08/15 12:13:23;;;;;;;2.03;1.35;;;29.10;67.20;;;;;;5031512;28;20237;-61
2022/08/15 12:15:50;;;;;;;1.50;1.40;;;29.40;65.70;;;;;;5030742;28;20646;-59
2022/08/15 12:18:33;;;;;;;2.65;1.42;;;29.50;64.90;;;;;;5031094;28;20213;-57
2022/08/15 12:21:13;;;;;;;2.15;1.55;;;29.70;64.40;;;;;;5031379;28;20202;-58
2022/08/15 12:23:49;;;;;;;2.60;1.40;;;30.00;63.70;;;;;;5031009;28;20296;-57
2022/08/15 12:26:18;;;;;;;1.63;1.50;;;30.30;62.40;;;;;;5031492;28;20213;-57
2022/08/15 12:28:45;;;;;;;2.22;1.30;;;30.50;62.40;;;;;;5030527;28;20230;-58
2022/08/15 12:31:27;;;;;;;5.97;1.73;;;30.60;63.30;;;;;;5030658;28;20230;-60
2022/08/15 12:34:04;;;;;;;17.58;2.28;;;30.60;62.40;;;;;;5030967;28;20245;-60
2022/08/15 12:36:32;;;;;;;3.13;1.70;;;30.70;62.60;;;;;;5030856;28;20641;-59
2022/08/15 12:39:00;;;;;;;1.63;1.35;;;30.70;61.80;;;;;;5030421;28;20210;-60
2022/08/15 12:41:27;;;;;;;2.95;1.40;;;30.60;61.80;;;;;;5030827;28;20237;-60
2022/08/15 12:43:54;;;;;;;12.57;1.70;;;30.20;62.30;;;;;;5030728;28;20784;-62
2022/08/15 12:46:21;;;;;;;5.63;2.67;;;30.00;63.20;;;;;;5030394;28;20218;-57
2022/08/15 12:48:49;;;;;;;3.03;2.42;;;30.10;63.30;;;;;;5030775;28;20694;-60
2022/08/15 12:51:16;;;;;;;3.65;1.67;;;30.10;63.10;;;;;;5030540;28;20225;-60
2022/08/15 12:53:43;;;;;;;3.42;1.58;;;30.30;62.30;;;;;;5030448;28;20230;-58
2022/08/15 12:56:11;;;;;;;4.95;2.78;;;30.30;62.00;;;;;;5030666;28;20206;-58
2022/08/15 12:58:39;;;;;;;3.42;2.40;;;30.50;62.00;;;;;;5030668;28;20217;-58
2022/08/15 13:01:08;;;;;;;2.47;1.85;;;30.70;60.90;;;;;;5032542;28;20202;-58
2022/08/15 13:03:35;;;;;;;2.78;1.88;;;30.90;59.60;;;;;;5034393;28;20271;-61
2022/08/15 13:06:05;;;;;;;2.20;1.58;;;31.00;59.30;;;;;;5034548;28;20563;-60
2022/08/15 13:08:33;;;;;;;3.72;1.38;;;31.10;59.60;;;;;;5034422;28;20225;-60
2022/08/15 13:10:59;;;;;;;2.60;1.50;;;31.20;59.70;;;;;;5033107;28;20229;-60
2022/08/15 13:13:27;;;;;;;3.55;2.28;;;31.20;60.10;;;;;;5034345;28;20202;-60